Time;durP1;ratioP1;P1;durP2;ratioP2;P2;SDS_P1;SDS_P2;PMS_P1;PMS_P2;Temp;Humidity;BMP_temperature;BMP_pressure;BME280_temperature;BME280_humidity;BME280_pressure;Samples;Min_cycle;Max_cycle;Signal;HPM_P1;HPM_P2
2021/06/08 00:00:29;;;;;;;9.55;6.90;;;;;;;17.42;100.00;96620.94;4987877;28;20081;-62
2021/06/08 00:02:57;;;;;;;7.55;6.57;;;;;;;17.52;100.00;96622.31;4985283;28;20061;-61
2021/06/08 00:05:25;;;;;;;8.27;6.68;;;;;;;17.56;100.00;96626.25;4987177;28;20537;-62
2021/06/08 00:07:53;;;;;;;9.07;7.30;;;;;;;17.36;100.00;96619.81;4987857;28;20061;-62
2021/06/08 00:10:23;;;;;;;9.43;7.28;;;;;;;17.24;100.00;96623.94;4980641;28;20085;-62
2021/06/08 00:12:51;;;;;;;8.27;7.18;;;;;;;17.04;100.00;96626.31;4994523;28;20089;-62
2021/06/08 00:15:19;;;;;;;7.93;7.15;;;;;;;16.95;100.00;96627.38;4983028;28;20525;-61
2021/06/08 00:17:47;;;;;;;7.95;7.20;;;;;;;17.09;100.00;96619.41;4984820;28;20070;-61
2021/06/08 00:20:16;;;;;;;8.50;7.70;;;;;;;17.01;100.00;96626.66;4987558;28;20074;-61
2021/06/08 00:22:46;;;;;;;8.23;7.45;;;;;;;16.97;100.00;96623.53;4987952;28;20062;-62
2021/06/08 00:25:14;;;;;;;9.35;7.85;;;;;;;17.03;100.00;96621.97;4992740;28;20746;-61
2021/06/08 00:27:44;;;;;;;8.10;7.30;;;;;;;17.08;100.00;96624.94;4987322;28;20092;-62
2021/06/08 00:30:13;;;;;;;10.95;7.32;;;;;;;16.84;100.00;96616.16;4987473;28;20069;-62
2021/06/08 00:32:41;;;;;;;9.25;7.78;;;;;;;17.07;100.00;96607.31;4984679;28;20070;-62
2021/06/08 00:35:10;;;;;;;8.70;7.80;;;;;;;16.83;100.00;96617.16;4987795;28;20514;-62
2021/06/08 00:37:39;;;;;;;11.70;8.10;;;;;;;16.82;100.00;96623.47;4985769;28;20435;-62
2021/06/08 00:40:08;;;;;;;9.38;8.27;;;;;;;16.50;100.00;96618.41;4993646;28;20446;-62
2021/06/08 00:42:37;;;;;;;10.33;8.40;;;;;;;16.45;100.00;96616.28;4988016;28;20513;-62
2021/06/08 00:45:08;;;;;;;8.90;8.00;;;;;;;16.56;100.00;96613.19;4989655;28;20066;-62
2021/06/08 00:47:36;;;;;;;9.23;8.23;;;;;;;16.58;100.00;96613.00;4983770;28;20518;-62
2021/06/08 00:50:05;;;;;;;9.68;8.02;;;;;;;16.52;100.00;96609.25;4990646;28;20069;-62
2021/06/08 00:52:33;;;;;;;9.15;8.00;;;;;;;16.47;100.00;96610.75;4978949;28;20058;-62
2021/06/08 00:55:01;;;;;;;9.63;8.63;;;;;;;16.48;100.00;96609.75;4987443;28;20576;-62
2021/06/08 00:57:29;;;;;;;8.70;7.60;;;;;;;16.42;100.00;96613.16;4987530;28;20518;-62
2021/06/08 00:59:57;;;;;;;8.98;8.07;;;;;;;16.41;100.00;96612.28;4985739;28;20058;-62
2021/06/08 01:02:27;;;;;;;9.52;8.63;;;;;;;16.47;100.00;96605.44;4982161;28;20455;-62
2021/06/08 01:04:55;;;;;;;9.10;8.30;;;;;;;16.11;100.00;96608.69;4990571;28;20066;-61
2021/06/08 01:07:23;;;;;;;8.90;8.00;;;;;;;16.51;100.00;96604.06;4989476;28;20439;-62
2021/06/08 01:09:55;;;;;;;11.00;8.57;;;;;;;16.57;100.00;96606.84;4989319;28;20092;-62
2021/06/08 01:12:24;;;;;;;11.55;9.65;;;;;;;16.51;100.00;96602.25;4982037;28;20537;-62
2021/06/08 01:14:52;;;;;;;10.10;9.10;;;;;;;16.48;100.00;96602.63;4988462;28;20061;-62
2021/06/08 01:17:20;;;;;;;9.98;8.98;;;;;;;16.61;100.00;96602.81;4989132;28;20510;-61
2021/06/08 01:19:54;;;;;;;11.90;9.23;;;;;;;16.18;100.00;96601.66;4987766;28;20074;-62
2021/06/08 01:22:24;;;;;;;10.35;9.35;;;;;;;16.19;100.00;96594.50;4986659;28;20457;-62
2021/06/08 01:24:53;;;;;;;11.93;8.73;;;;;;;16.16;100.00;96587.69;4985375;28;20509;-59
2021/06/08 01:27:21;;;;;;;11.23;9.15;;;;;;;16.02;100.00;96599.09;4990133;28;20062;-62
2021/06/08 01:29:52;;;;;;;10.13;9.13;;;;;;;16.17;100.00;96591.16;4982828;28;20062;-62
2021/06/08 01:32:23;;;;;;;9.80;8.80;;;;;;;15.97;100.00;96598.81;4988374;28;20089;-62
2021/06/08 01:34:52;;;;;;;10.32;9.32;;;;;;;15.96;100.00;96597.13;4985678;28;20085;-62
2021/06/08 01:37:20;;;;;;;10.43;9.43;;;;;;;15.82;100.00;96598.69;4984099;28;20070;-60
2021/06/08 01:39:50;;;;;;;10.30;9.25;;;;;;;15.93;100.00;96597.47;4985988;28;20076;-62
2021/06/08 01:42:18;;;;;;;11.38;9.20;;;;;;;15.86;100.00;96598.19;4989863;28;20073;-62
2021/06/08 01:44:46;;;;;;;10.18;9.18;;;;;;;15.75;100.00;96605.72;4987675;28;20062;-61
2021/06/08 01:47:15;;;;;;;10.10;9.00;;;;;;;15.74;100.00;96599.56;4990744;28;20117;-62
2021/06/08 01:49:43;;;;;;;10.75;9.65;;;;;;;15.86;100.00;96600.00;4987504;28;20197;-61
2021/06/08 01:52:18;;;;;;;13.38;9.40;;;;;;;15.68;100.00;96600.25;4987118;28;20545;-61
2021/06/08 01:54:55;;;;;;;10.93;9.82;;;;;;;15.55;100.00;96603.41;4996422;28;20081;-61
2021/06/08 01:57:29;;;;;;;11.98;10.77;;;;;;;15.42;100.00;96609.31;4993044;28;20449;-61
2021/06/08 02:00:01;;;;;;;11.10;10.00;;;;;;;15.57;100.00;96611.25;4985148;28;20077;-61
2021/06/08 02:02:33;;;;;;;13.13;10.70;;;;;;;15.87;100.00;96604.34;4992740;28;20537;-61
2021/06/08 02:05:12;;;;;;;13.23;11.23;;;;;;;15.66;100.00;96605.75;4987814;28;20066;-62
2021/06/08 02:07:47;;;;;;;13.43;11.77;;;;;;;15.67;100.00;96601.25;4992378;28;20069;-61
2021/06/08 02:10:27;;;;;;;14.00;12.57;;;;;;;15.71;100.00;96604.41;4987497;28;20086;-62
2021/06/08 02:13:01;;;;;;;13.85;12.35;;;;;;;15.87;100.00;96601.66;4993670;28;20077;-60
2021/06/08 02:15:33;;;;;;;14.05;12.65;;;;;;;15.43;100.00;96610.13;4978951;28;20568;-61
2021/06/08 02:18:02;;;;;;;14.85;12.57;;;;;;;15.29;100.00;96608.19;4991305;28;20093;-60
2021/06/08 02:20:32;;;;;;;15.10;13.23;;;;;;;15.32;100.00;96611.31;4985891;28;20066;-62
2021/06/08 02:23:01;;;;;;;13.82;12.43;;;;;;;15.48;100.00;96607.75;4987213;28;20537;-62
2021/06/08 02:25:32;;;;;;;14.70;13.15;;;;;;;15.55;100.00;96613.22;4989751;28;20062;-61
2021/06/08 02:28:07;;;;;;;15.18;13.63;;;;;;;15.58;100.00;96610.22;4988373;28;20082;-62
2021/06/08 02:30:35;;;;;;;16.35;14.65;;;;;;;15.27;100.00;96613.66;4982141;28;20086;-60
2021/06/08 02:33:05;;;;;;;16.83;14.70;;;;;;;15.24;100.00;96618.47;4987712;28;20069;-62
2021/06/08 02:35:34;;;;;;;16.25;14.55;;;;;;;15.50;100.00;96618.25;4987804;28;20074;-61
2021/06/08 02:38:03;;;;;;;16.30;14.60;;;;;;;15.44;100.00;96617.09;4988800;28;20062;-61
2021/06/08 02:40:33;;;;;;;20.77;14.95;;;;;;;15.13;100.00;96617.81;4989137;28;20066;-61
2021/06/08 02:43:01;;;;;;;17.15;15.25;;;;;;;15.07;100.00;96620.31;4985274;28;20065;-60
2021/06/08 02:45:29;;;;;;;18.50;15.88;;;;;;;15.32;100.00;96626.44;4996135;28;20078;-61
2021/06/08 02:47:58;;;;;;;17.52;15.68;;;;;;;15.20;100.00;96621.47;4986450;28;20078;-61
2021/06/08 02:50:27;;;;;;;18.55;16.00;;;;;;;15.18;100.00;96630.63;4985872;28;20062;-60
2021/06/08 02:52:55;;;;;;;17.95;15.70;;;;;;;15.00;100.00;96627.31;4987242;28;20069;-61
2021/06/08 02:55:26;;;;;;;17.95;16.08;;;;;;;14.86;100.00;96632.31;4985843;28;20081;-59
2021/06/08 02:57:58;;;;;;;19.40;16.55;;;;;;;14.93;100.00;96638.63;4990209;28;20093;-61
2021/06/08 03:00:26;;;;;;;17.20;15.43;;;;;;;15.26;100.00;96635.91;4984830;28;20444;-61
2021/06/08 03:02:57;;;;;;;20.38;16.10;;;;;;;15.09;100.00;96626.31;4987500;28;20065;-61
2021/06/08 03:05:28;;;;;;;18.05;16.20;;;;;;;15.13;100.00;96638.25;4985069;28;20071;-60
2021/06/08 03:07:58;;;;;;;17.00;15.20;;;;;;;15.03;100.00;96646.41;4986105;28;20073;-60
2021/06/08 03:10:29;;;;;;;18.38;15.82;;;;;;;14.91;100.00;96635.31;4983120;28;20062;-60
2021/06/08 03:13:01;;;;;;;22.33;16.45;;;;;;;15.14;100.00;96650.53;4986846;28;20077;-61
2021/06/08 03:15:31;;;;;;;19.33;17.33;;;;;;;15.29;100.00;96640.06;4983048;28;20572;-61
2021/06/08 03:17:59;;;;;;;19.63;16.92;;;;;;;15.16;100.00;96656.50;4978705;28;20069;-61
2021/06/08 03:20:31;;;;;;;20.13;16.67;;;;;;;15.31;100.00;96654.00;4985406;28;20081;-61
2021/06/08 03:23:01;;;;;;;19.02;17.00;;;;;;;15.24;100.00;96651.19;4980107;28;20039;-61
2021/06/08 03:25:29;;;;;;;19.50;17.23;;;;;;;15.23;100.00;96654.00;4982317;28;20069;-61
2021/06/08 03:28:00;;;;;;;19.80;17.65;;;;;;;15.40;100.00;96651.16;4986289;28;21232;-60
2021/06/08 03:30:29;;;;;;;18.67;16.70;;;;;;;15.34;100.00;96656.31;4981966;28;20305;-58
2021/06/08 03:32:57;;;;;;;20.33;17.05;;;;;;;15.29;100.00;96659.47;4984713;28;20076;-61
2021/06/08 03:35:26;;;;;;;20.58;17.40;;;;;;;15.14;100.00;96663.81;4986674;28;20062;-61
2021/06/08 03:37:55;;;;;;;19.47;16.87;;;;;;;15.35;100.00;96669.44;4985529;28;20062;-62
2021/06/08 03:40:24;;;;;;;21.35;17.95;;;;;;;15.44;100.00;96667.59;4985000;28;20066;-61
2021/06/08 03:42:52;;;;;;;18.67;16.77;;;;;;;15.58;100.00;96663.38;4985378;28;20494;-59
2021/06/08 03:45:22;;;;;;;19.77;16.60;;;;;;;15.38;100.00;96663.78;4988173;28;20078;-60
2021/06/08 03:47:54;;;;;;;20.23;16.25;;;;;;;15.16;100.00;96662.66;4985771;28;20089;-58
2021/06/08 03:50:22;;;;;;;17.65;15.82;;;;;;;15.31;100.00;96661.97;4983409;28;20062;-59
2021/06/08 03:52:50;;;;;;;18.08;15.90;;;;;;;15.45;100.00;96661.28;4987674;28;20804;-59
2021/06/08 03:55:20;;;;;;;18.30;16.30;;;;;;;15.93;100.00;96666.63;4983774;28;20077;-58
2021/06/08 03:57:52;;;;;;;15.93;14.07;;;;;;;16.53;100.00;96658.81;4991299;28;20120;-60
2021/06/08 04:00:24;;;;;;;15.23;13.63;;;;;;;17.09;100.00;96647.91;4981690;28;20057;-57
2021/06/08 04:02:52;;;;;;;15.10;13.30;;;;;;;17.07;100.00;96656.09;4986158;28;20104;-59
2021/06/08 04:05:20;;;;;;;14.02;12.52;;;;;;;17.04;100.00;96653.78;4979979;28;20074;-58
2021/06/08 04:07:49;;;;;;;16.17;11.73;;;;;;;17.58;100.00;96655.41;4986719;28;20074;-58
2021/06/08 04:10:19;;;;;;;13.10;11.70;;;;;;;17.42;100.00;96648.41;4981787;28;20097;-57
2021/06/08 04:12:48;;;;;;;13.52;12.05;;;;;;;17.68;100.00;96655.94;4991819;28;20093;-59
2021/06/08 04:15:17;;;;;;;13.07;11.63;;;;;;;17.43;100.00;96655.41;4986878;28;20081;-59
2021/06/08 04:17:46;;;;;;;12.13;10.93;;;;;;;17.18;100.00;96657.47;4983841;28;20070;-58
2021/06/08 04:20:15;;;;;;;;;;;;;;;16.84;100.00;96657.94;4984882;28;20041;-59
2021/06/08 04:22:46;;;;;;;13.38;11.98;;;;;;;17.30;100.00;96665.84;4986101;28;19945;-56
2021/06/08 04:25:16;;;;;;;12.60;11.20;;;;;;;17.82;100.00;96670.31;4986362;28;20093;-58
2021/06/08 04:27:44;;;;;;;14.07;10.65;;;;;;;17.15;100.00;96668.50;4990416;28;20082;-59
2021/06/08 04:30:14;;;;;;;11.55;10.05;;;;;;;17.58;100.00;96671.41;4983946;28;20058;-57
2021/06/08 04:32:43;;;;;;;12.50;11.18;;;;;;;17.39;100.00;96669.28;4986273;28;20062;-57
2021/06/08 04:35:14;;;;;;;12.45;11.15;;;;;;;17.29;100.00;96675.69;4984916;28;20469;-58
2021/06/08 04:37:42;;;;;;;12.00;10.80;;;;;;;17.81;100.00;96682.00;4983945;28;20568;-59
2021/06/08 04:40:11;;;;;;;13.20;10.80;;;;;;;17.84;100.00;96676.31;4988174;28;20081;-59
2021/06/08 04:42:42;;;;;;;12.23;10.93;;;;;;;18.55;100.00;96665.88;4990512;28;20483;-58
2021/06/08 04:45:11;;;;;;;11.88;10.50;;;;;;;18.92;100.00;96669.31;4983689;28;20632;-56
2021/06/08 04:47:39;;;;;;;11.45;10.02;;;;;;;18.45;100.00;96668.03;4984534;28;20081;-59
2021/06/08 04:50:10;;;;;;;11.57;10.38;;;;;;;17.95;100.00;96675.84;4981858;28;20067;-60
2021/06/08 04:52:40;;;;;;;11.90;10.73;;;;;;;17.99;100.00;96674.44;4983056;28;20443;-58
2021/06/08 04:55:10;;;;;;;11.55;10.45;;;;;;;18.40;100.00;96667.75;4986440;28;20475;-59
2021/06/08 04:57:38;;;;;;;12.35;11.05;;;;;;;18.09;100.00;96676.00;4986023;28;20085;-60
2021/06/08 05:00:08;;;;;;;13.90;10.93;;;;;;;18.26;100.00;96669.44;4986980;28;20084;-60
2021/06/08 05:02:38;;;;;;;12.35;10.95;;;;;;;18.15;100.00;96673.44;4983086;28;20070;-58
2021/06/08 05:05:08;;;;;;;14.73;11.82;;;;;;;18.43;100.00;96670.03;4986345;28;20073;-58
2021/06/08 05:07:40;;;;;;;12.57;11.07;;;;;;;18.60;100.00;96673.31;4986401;28;20077;-59
2021/06/08 05:10:11;;;;;;;13.70;11.55;;;;;;;18.56;100.00;96669.38;4988474;28;20081;-59
2021/06/08 05:12:40;;;;;;;12.95;11.55;;;;;;;19.37;100.00;96668.09;4984030;28;20548;-60
2021/06/08 05:15:09;;;;;;;12.43;11.07;;;;;;;19.23;100.00;96673.50;4986040;28;20066;-59
2021/06/08 05:17:38;;;;;;;13.90;10.90;;;;;;;18.98;100.00;96674.75;4987450;28;20706;-58
2021/06/08 05:20:09;;;;;;;12.63;11.27;;;;;;;18.77;100.00;96681.94;4982953;28;20066;-60
2021/06/08 05:22:39;;;;;;;12.10;10.90;;;;;;;19.24;100.00;96688.53;4992678;28;20068;-56
2021/06/08 05:25:09;;;;;;;13.10;11.80;;;;;;;19.60;100.00;96683.03;4992635;28;20497;-59
2021/06/08 05:27:37;;;;;;;12.40;11.10;;;;;;;19.79;100.00;96679.69;4985681;28;20085;-58
2021/06/08 05:30:09;;;;;;;15.45;11.57;;;;;;;19.89;100.00;96677.50;4993471;28;20061;-59
2021/06/08 05:32:38;;;;;;;12.23;11.02;;;;;;;20.10;100.00;96681.91;4985878;28;20530;-59
2021/06/08 05:35:08;;;;;;;17.92;11.05;;;;;;;19.85;100.00;96681.56;4990291;28;20077;-60
2021/06/08 05:37:41;;;;;;;13.52;10.98;;;;;;;20.06;100.00;96688.69;4992555;28;20110;-60
2021/06/08 05:40:14;;;;;;;12.25;11.05;;;;;;;19.50;100.00;96690.56;4984762;28;20097;-59
2021/06/08 05:42:42;;;;;;;12.37;11.17;;;;;;;18.99;100.00;96688.91;4988012;28;20074;-58
2021/06/08 05:45:11;;;;;;;12.52;11.15;;;;;;;18.95;100.00;96687.66;4984359;28;20065;-58
2021/06/08 05:47:40;;;;;;;13.05;11.63;;;;;;;18.82;100.00;96690.19;4991189;28;20046;-59
2021/06/08 05:50:09;;;;;;;13.10;11.68;;;;;;;19.02;100.00;96685.88;4987545;28;20058;-57
2021/06/08 05:52:37;;;;;;;12.73;11.45;;;;;;;19.27;100.00;96694.34;4990340;28;20073;-59
2021/06/08 05:55:06;;;;;;;12.07;10.80;;;;;;;19.82;100.00;96681.97;4987250;28;20537;-60
2021/06/08 05:57:36;;;;;;;12.15;10.90;;;;;;;19.70;100.00;96688.06;4994421;28;20073;-59
2021/06/08 06:00:05;;;;;;;13.15;11.55;;;;;;;19.68;100.00;96696.28;4990340;28;20057;-58
2021/06/08 06:02:35;;;;;;;13.63;12.07;;;;;;;19.56;100.00;96693.31;4985927;28;20077;-59
2021/06/08 06:05:03;;;;;;;13.02;11.73;;;;;;;20.29;100.00;96700.94;4987336;28;21024;-60
2021/06/08 06:07:33;;;;;;;12.23;10.93;;;;;;;20.30;100.00;96698.06;4988402;28;20042;-59
2021/06/08 06:10:01;;;;;;;13.73;12.15;;;;;;;19.99;100.00;96697.69;4984500;28;20066;-60
2021/06/08 06:12:29;;;;;;;13.75;12.27;;;;;;;20.47;100.00;96700.38;4990695;28;20077;-60
2021/06/08 06:15:04;;;;;;;14.63;11.80;;;;;;;20.68;100.00;96694.09;4984599;28;20454;-60
2021/06/08 06:17:34;;;;;;;12.48;11.02;;;;;;;20.51;100.00;96699.81;4991898;28;20073;-60
2021/06/08 06:20:06;;;;;;;15.23;12.13;;;;;;;20.81;100.00;96692.25;4986512;28;20054;-60
2021/06/08 06:22:35;;;;;;;14.68;12.63;;;;;;;20.81;100.00;96696.78;4990425;28;20064;-60
2021/06/08 06:25:05;;;;;;;14.53;13.13;;;;;;;21.46;100.00;96694.41;4991484;28;20517;-60
2021/06/08 06:27:34;;;;;;;14.75;13.35;;;;;;;21.46;100.00;96697.09;4990274;28;20051;-60
2021/06/08 06:30:05;;;;;;;15.45;13.82;;;;;;;21.23;100.00;96701.00;4985378;28;20073;-57
2021/06/08 06:32:34;;;;;;;15.05;13.32;;;;;;;21.71;100.00;96705.31;4988334;28;20070;-60
2021/06/08 06:35:04;;;;;;;16.38;14.25;;;;;;;21.51;100.00;96697.31;4987078;28;20640;-58
2021/06/08 06:37:32;;;;;;;15.95;14.45;;;;;;;22.01;100.00;96700.31;4989408;28;20733;-60
2021/06/08 06:40:02;;;;;;;16.33;14.63;;;;;;;21.70;100.00;96698.31;4988810;28;20061;-58
2021/06/08 06:42:37;;;;;;;15.40;13.98;;;;;;;22.08;100.00;96690.38;4972278;28;20069;-55
2021/06/08 06:45:09;;;;;;;16.75;14.43;;;;;;;21.65;100.00;96700.81;4978953;28;20070;-59
2021/06/08 06:47:37;;;;;;;16.75;15.15;;;;;;;21.67;100.00;96706.75;4983358;28;20070;-60
2021/06/08 06:50:07;;;;;;;16.75;15.23;;;;;;;21.68;100.00;96708.41;4989372;28;20073;-57
2021/06/08 06:52:35;;;;;;;17.35;15.65;;;;;;;22.58;100.00;96706.75;4994525;28;20066;-58
2021/06/08 06:55:04;;;;;;;16.58;14.82;;;;;;;21.56;100.00;96708.22;4989851;28;20074;-59
2021/06/08 06:57:33;;;;;;;16.57;14.87;;;;;;;22.62;100.00;96702.56;4986405;28;20089;-56
2021/06/08 07:00:01;;;;;;;16.80;15.15;;;;;;;21.75;100.00;96706.56;4988032;28;20061;-60
2021/06/08 07:02:31;;;;;;;17.15;15.15;;;;;;;22.83;100.00;96701.44;4985002;28;20453;-60
2021/06/08 07:04:59;;;;;;;17.00;15.32;;;;;;;22.84;100.00;96704.94;4986638;28;20070;-60
2021/06/08 07:07:28;;;;;;;17.13;15.43;;;;;;;22.27;100.00;96704.81;4988584;28;20077;-60
2021/06/08 07:09:56;;;;;;;16.80;15.10;;;;;;;22.01;100.00;96711.88;4988724;28;20437;-57
2021/06/08 07:12:24;;;;;;;17.27;15.55;;;;;;;21.51;100.00;96713.41;4983001;28;21517;-60
2021/06/08 07:14:52;;;;;;;17.67;15.98;;;;;;;22.25;100.00;96704.19;4989789;28;20061;-60
2021/06/08 07:17:23;;;;;;;19.02;17.13;;;;;;;21.58;100.00;96708.84;4983629;28;20489;-60
2021/06/08 07:19:55;;;;;;;18.55;16.77;;;;;;;22.28;100.00;96709.13;4994355;28;20468;-60
2021/06/08 07:22:24;;;;;;;19.80;16.85;;;;;;;21.59;100.00;96707.81;4984295;28;20529;-59
2021/06/08 07:24:53;;;;;;;18.45;16.55;;;;;;;21.74;100.00;96710.25;4987070;28;20101;-60
2021/06/08 07:27:21;;;;;;;18.35;16.45;;;;;;;22.06;100.00;96708.56;4986012;28;20069;-60
2021/06/08 07:29:49;;;;;;;18.13;16.42;;;;;;;22.18;100.00;96709.56;4987769;28;20077;-58
2021/06/08 07:32:21;;;;;;;20.00;17.95;;;;;;;22.43;100.00;96708.88;4979963;28;20085;-59
2021/06/08 07:34:52;;;;;;;19.10;17.15;;;;;;;22.10;100.00;96714.34;4990320;28;20066;-61
2021/06/08 07:37:22;;;;;;;19.08;17.17;;;;;;;21.93;100.00;96714.78;4982897;28;20093;-60
2021/06/08 07:39:54;;;;;;;18.70;16.80;;;;;;;22.25;100.00;96725.69;4991737;28;20081;-59
2021/06/08 07:42:24;;;;;;;19.75;17.58;;;;;;;22.74;100.00;96706.22;4990751;28;20089;-60
2021/06/08 07:44:57;;;;;;;18.63;16.73;;;;;;;23.17;100.00;96712.84;4985770;28;20069;-58
2021/06/08 07:47:27;;;;;;;18.50;16.70;;;;;;;23.64;100.00;96703.34;4986998;28;20572;-59
2021/06/08 07:49:56;;;;;;;17.67;15.93;;;;;;;23.59;100.00;96711.25;4984407;28;20088;-60
2021/06/08 07:52:26;;;;;;;18.23;16.33;;;;;;;23.65;100.00;96710.38;4986373;28;20073;-60
2021/06/08 07:54:54;;;;;;;18.17;16.40;;;;;;;23.30;100.00;96711.91;4989905;28;20069;-60
2021/06/08 07:57:23;;;;;;;19.35;17.30;;;;;;;22.41;100.00;96716.31;4984747;28;20076;-58
2021/06/08 08:00:10;;;;;;;19.92;17.17;;;;;;;23.00;100.00;96704.47;4983936;28;20070;-60
2021/06/08 08:02:38;;;;;;;19.80;17.70;;;;;;;22.31;100.00;96711.41;4989159;28;20077;-60
2021/06/08 08:05:10;;;;;;;19.45;17.63;;;;;;;22.27;100.00;96710.19;4981203;28;20070;-60
2021/06/08 08:07:39;;;;;;;19.92;17.70;;;;;;;23.27;100.00;96705.09;4988769;28;20077;-59
2021/06/08 08:10:09;;;;;;;20.38;18.17;;;;;;;22.42;100.00;96708.03;4986698;28;20065;-60
2021/06/08 08:12:39;;;;;;;20.08;18.17;;;;;;;22.72;100.00;96708.31;4990001;28;20469;-60
2021/06/08 08:15:08;;;;;;;20.92;18.83;;;;;;;23.31;100.00;96714.38;4983572;28;20065;-59
2021/06/08 08:17:37;;;;;;;19.48;17.50;;;;;;;23.30;100.00;96710.03;4988087;28;20062;-60
2021/06/08 08:20:07;;;;;;;20.58;18.50;;;;;;;23.10;100.00;96717.44;4984051;28;20069;-57
2021/06/08 08:22:35;;;;;;;;;;;;;;;23.08;100.00;96717.63;4982442;28;20065;-60
2021/06/08 08:25:05;;;;;;;19.65;17.63;;;;;;;23.01;100.00;96718.72;4982414;28;20424;-58
2021/06/08 08:27:33;;;;;;;;;;;;;;;24.25;100.00;96715.16;4989821;28;20198;-59
2021/06/08 08:30:00;;;;;;;20.55;18.40;;;;;;;24.11;100.00;96710.97;4984274;28;20373;-59
2021/06/08 08:32:29;;;;;;;20.63;18.55;;;;;;;24.54;100.00;96716.31;4988419;28;20077;-59
2021/06/08 08:34:57;;;;;;;20.58;18.58;;;;;;;24.56;100.00;96716.06;4981230;28;20062;-58
2021/06/08 08:37:25;;;;;;;20.35;18.35;;;;;;;25.03;100.00;96716.28;4995119;28;20474;-60
2021/06/08 08:40:11;;;;;;;20.65;18.52;;;;;;;25.08;100.00;96708.28;4961785;28;20058;-60
2021/06/08 08:42:39;;;;;;;21.02;18.92;;;;;;;24.70;100.00;96714.84;4988309;28;20078;-60
2021/06/08 08:45:08;;;;;;;20.80;18.73;;;;;;;25.00;100.00;96714.03;4986898;28;20061;-60
2021/06/08 08:47:36;;;;;;;21.08;19.00;;;;;;;24.54;100.00;96710.09;4986529;28;20077;-58
2021/06/08 08:50:05;;;;;;;20.50;18.60;;;;;;;24.57;100.00;96717.72;4984082;28;20066;-59
2021/06/08 08:52:34;;;;;;;20.95;18.95;;;;;;;25.00;100.00;96712.16;4986643;28;20066;-59
2021/06/08 08:55:03;;;;;;;19.85;17.95;;;;;;;25.05;100.00;96714.16;4985215;28;20093;-59
2021/06/08 08:57:33;;;;;;;20.40;18.45;;;;;;;25.98;100.00;96718.94;4987016;28;20081;-61
2021/06/08 09:00:03;;;;;;;20.60;18.60;;;;;;;25.69;100.00;96714.44;4990198;28;20074;-59
2021/06/08 09:02:38;;;;;;;20.73;18.52;;;;;;;25.88;100.00;96710.59;4981764;28;20112;-60
2021/06/08 09:05:07;;;;;;;20.73;18.63;;;;;;;25.76;98.85;96715.13;4992149;28;20073;-58
2021/06/08 09:07:35;;;;;;;20.33;18.35;;;;;;;26.53;90.35;96712.25;4986033;28;20066;-60
2021/06/08 09:10:04;;;;;;;21.10;18.90;;;;;;;24.93;100.00;96706.03;4985892;28;20116;-60
2021/06/08 09:12:33;;;;;;;21.05;18.25;;;;;;;25.27;100.00;96709.91;4993826;28;20089;-59
2021/06/08 09:15:01;;;;;;;21.17;19.08;;;;;;;25.39;100.00;96704.53;4986871;28;20073;-60
2021/06/08 09:17:31;;;;;;;21.25;19.15;;;;;;;25.24;100.00;96707.66;4984354;28;20073;-59
2021/06/08 09:19:58;;;;;;;21.33;19.10;;;;;;;24.56;100.00;96710.69;4990171;28;20068;-59
2021/06/08 09:22:51;;;;;;;19.80;17.75;;;;;;;25.32;100.00;96710.03;4983885;28;20070;-60
2021/06/08 09:25:49;;;;;;;21.55;19.45;;;;;;;25.68;96.81;96710.09;4986098;28;20066;-59
2021/06/08 09:28:24;;;;;;;21.13;19.13;;;;;;;26.13;88.05;96713.03;4986136;28;20082;-60
2021/06/08 09:30:59;;;;;;;21.25;19.17;;;;;;;25.14;100.00;96709.28;4991708;28;20088;-61
2021/06/08 09:33:28;;;;;;;20.42;18.52;;;;;;;25.24;100.00;96707.66;4982169;28;20339;-60
2021/06/08 09:35:58;;;;;;;21.97;18.67;;;;;;;25.29;96.39;96709.66;4991633;28;20068;-59
2021/06/08 09:38:43;;;;;;;20.15;18.25;;;;;;;24.85;98.80;96714.47;4984875;28;20473;-60
2021/06/08 09:41:20;;;;;;;19.83;16.98;;;;;;;25.70;93.44;96714.19;4985713;28;20100;-60
2021/06/08 09:43:52;;;;;;;19.70;17.70;;;;;;;26.30;80.91;96709.59;4985975;28;20089;-60
2021/06/08 09:46:21;;;;;;;19.85;17.83;;;;;;;26.49;82.74;96714.63;4989415;28;20478;-59
2021/06/08 09:48:53;;;;;;;19.75;17.75;;;;;;;25.68;82.12;96713.59;4986854;28;20086;-60
2021/06/08 09:51:23;;;;;;;20.50;18.60;;;;;;;25.89;87.88;96714.13;4989680;28;20085;-60
2021/06/08 09:53:51;;;;;;;20.20;18.07;;;;;;;26.28;90.96;96717.94;4984438;28;20073;-67
2021/06/08 09:56:20;;;;;;;20.65;18.75;;;;;;;26.51;85.66;96715.22;4987827;28;20084;-60
2021/06/08 09:58:51;;;;;;;21.17;19.08;;;;;;;26.38;90.74;96710.03;4986374;28;20064;-60
2021/06/08 10:01:23;;;;;;;19.88;18.02;;;;;;;27.07;85.83;96707.34;4986693;28;20089;-58
2021/06/08 10:03:52;;;;;;;19.20;17.45;;;;;;;27.18;78.79;96706.47;4990189;28;20082;-60
2021/06/08 10:06:22;;;;;;;18.92;17.10;;;;;;;27.20;72.14;96708.97;4992385;28;20479;-59
2021/06/08 10:08:59;;;;;;;19.63;17.73;;;;;;;27.17;70.37;96699.44;4988699;28;20068;-60
2021/06/08 10:11:29;;;;;;;19.30;17.30;;;;;;;27.63;64.22;96705.63;4987576;28;20478;-59
2021/06/08 10:14:09;;;;;;;18.33;16.52;;;;;;;28.22;63.69;96702.44;4993260;28;20062;-59
2021/06/08 10:16:38;;;;;;;17.67;16.05;;;;;;;27.24;62.43;96704.69;4989279;28;20074;-61
2021/06/08 10:19:07;;;;;;;16.85;15.30;;;;;;;27.09;66.62;96707.13;4990349;28;20552;-60
2021/06/08 10:21:41;;;;;;;19.80;17.90;;;;;;;27.38;67.96;96705.19;4992723;28;20098;-60
2021/06/08 10:24:11;;;;;;;18.40;16.75;;;;;;;27.65;74.10;96700.75;4989414;28;20066;-60
2021/06/08 10:26:44;;;;;;;19.75;17.92;;;;;;;28.09;61.04;96695.47;4991114;28;20069;-60
2021/06/08 10:29:14;;;;;;;20.02;18.08;;;;;;;27.67;69.72;96709.47;4990783;28;20070;-59
2021/06/08 10:31:46;;;;;;;18.63;16.70;;;;;;;28.52;61.41;96702.00;4990222;28;20082;-60
2021/06/08 10:34:34;;;;;;;18.33;16.73;;;;;;;28.60;56.17;96703.47;4988152;28;20066;-59
2021/06/08 10:37:03;;;;;;;19.42;17.55;;;;;;;28.43;58.76;96702.72;4993766;28;20126;-60
2021/06/08 10:39:31;;;;;;;20.02;17.85;;;;;;;28.62;57.81;96699.41;4988246;28;20085;-60
2021/06/08 10:41:59;;;;;;;19.65;17.77;;;;;;;28.79;54.34;96698.53;4993459;28;20454;-60
2021/06/08 10:44:29;;;;;;;19.67;17.98;;;;;;;27.35;64.05;96692.13;4994419;28;20065;-59
2021/06/08 10:47:00;;;;;;;19.23;17.25;;;;;;;28.06;60.63;96689.72;4986272;28;20097;-61
2021/06/08 10:49:36;;;;;;;19.30;17.58;;;;;;;28.62;58.17;96687.75;4992152;28;20493;-60
2021/06/08 10:52:06;;;;;;;20.73;18.70;;;;;;;27.81;61.64;96688.31;4986313;28;20082;-60
2021/06/08 10:54:39;;;;;;;19.05;17.25;;;;;;;28.17;60.51;96688.78;4991734;28;20522;-58
2021/06/08 10:57:12;;;;;;;19.30;17.33;;;;;;;29.75;52.16;96681.50;4984025;28;20077;-60
2021/06/08 10:59:43;;;;;;;18.40;16.80;;;;;;;27.78;64.76;96685.28;4988944;28;20065;-60
2021/06/08 11:02:11;;;;;;;18.85;17.08;;;;;;;27.79;61.76;96684.19;4987434;28;20078;-60
2021/06/08 11:04:53;;;;;;;18.73;17.03;;;;;;;28.20;58.13;96688.28;4994925;28;20509;-59
2021/06/08 11:07:52;;;;;;;19.27;17.42;;;;;;;28.31;60.77;96681.91;4981668;28;20084;-60
2021/06/08 11:10:53;;;;;;;18.38;16.58;;;;;;;29.23;54.48;96677.53;4981351;28;20170;-61
2021/06/08 11:13:56;;;;;;;17.60;15.80;;;;;;;29.48;56.58;96681.56;4991443;28;20081;-61
2021/06/08 11:16:37;;;;;;;16.92;15.43;;;;;;;29.67;50.20;96679.28;4987889;28;20467;-60
2021/06/08 11:19:05;;;;;;;17.90;16.20;;;;;;;28.79;53.27;96677.63;4971835;28;20081;-61
2021/06/08 11:21:34;;;;;;;15.95;14.45;;;;;;;30.13;48.34;96677.66;4973051;28;20081;-60
2021/06/08 11:24:03;;;;;;;15.80;14.20;;;;;;;29.25;46.29;96677.28;4990440;28;20065;-61
2021/06/08 11:26:51;;;;;;;14.77;13.38;;;;;;;30.14;43.39;96664.88;4966930;28;20078;-59
2021/06/08 11:29:42;;;;;;;13.57;12.27;;;;;;;29.80;42.39;96660.63;4984993;28;20070;-60